sensor_id;sensor_type;location;lat;lon;timestamp;P1;durP1;ratioP1;P2;durP2;ratioP2
11998;SDS011;40817;51.520;9.954;2022-09-03T00:02:37;2.03;;;1.08;;
11998;SDS011;40817;51.520;9.954;2022-09-03T00:05:14;2.00;;;1.13;;
11998;SDS011;40817;51.520;9.954;2022-09-03T00:07:51;1.83;;;0.98;;
11998;SDS011;40817;51.520;9.954;2022-09-03T00:10:31;3.33;;;1.10;;
11998;SDS011;40817;51.520;9.954;2022-09-03T00:13:09;2.72;;;1.10;;
11998;SDS011;40817;51.520;9.954;2022-09-03T00:15:45;2.17;;;1.08;;
11998;SDS011;40817;51.520;9.954;2022-09-03T00:18:14;2.67;;;0.90;;
11998;SDS011;40817;51.520;9.954;2022-09-03T00:20:48;3.45;;;0.85;;
11998;SDS011;40817;51.520;9.954;2022-09-03T00:23:24;2.45;;;0.85;;
11998;SDS011;40817;51.520;9.954;2022-09-03T00:25:59;1.95;;;1.00;;
11998;SDS011;40817;51.520;9.954;2022-09-03T00:28:34;3.30;;;0.85;;
11998;SDS011;40817;51.520;9.954;2022-09-03T00:31:09;4.35;;;1.08;;
11998;SDS011;40817;51.520;9.954;2022-09-03T00:33:46;1.48;;;0.70;;
11998;SDS011;40817;51.520;9.954;2022-09-03T00:36:19;2.30;;;0.80;;
11998;SDS011;40817;51.520;9.954;2022-09-03T00:38:54;1.80;;;0.80;;
11998;SDS011;40817;51.520;9.954;2022-09-03T00:41:28;2.15;;;0.70;;
11998;SDS011;40817;51.520;9.954;2022-09-03T00:44:16;2.15;;;0.73;;
11998;SDS011;40817;51.520;9.954;2022-09-03T00:47:14;2.13;;;1.13;;
11998;SDS011;40817;51.520;9.954;2022-09-03T00:49:57;3.58;;;0.80;;
11998;SDS011;40817;51.520;9.954;2022-09-03T00:52:42;1.95;;;1.08;;
11998;SDS011;40817;51.520;9.954;2022-09-03T00:55:28;2.72;;;0.88;;
11998;SDS011;40817;51.520;9.954;2022-09-03T00:58:16;1.63;;;0.70;;
11998;SDS011;40817;51.520;9.954;2022-09-03T01:01:14;2.25;;;0.80;;
11998;SDS011;40817;51.520;9.954;2022-09-03T01:03:51;2.88;;;0.80;;
11998;SDS011;40817;51.520;9.954;2022-09-03T01:06:34;2.95;;;0.88;;
11998;SDS011;40817;51.520;9.954;2022-09-03T01:09:16;2.80;;;0.88;;
11998;SDS011;40817;51.520;9.954;2022-09-03T01:12:05;4.72;;;0.90;;
11998;SDS011;40817;51.520;9.954;2022-09-03T01:14:46;2.95;;;0.90;;
11998;SDS011;40817;51.520;9.954;2022-09-03T01:17:31;4.03;;;0.80;;
11998;SDS011;40817;51.520;9.954;2022-09-03T01:20:26;2.47;;;1.00;;
11998;SDS011;40817;51.520;9.954;2022-09-03T01:23:42;2.17;;;0.80;;
11998;SDS011;40817;51.520;9.954;2022-09-03T01:26:46;1.83;;;0.60;;
11998;SDS011;40817;51.520;9.954;2022-09-03T01:29:38;2.47;;;0.98;;
11998;SDS011;40817;51.520;9.954;2022-09-03T01:32:18;2.28;;;1.05;;
11998;SDS011;40817;51.520;9.954;2022-09-03T01:35:03;3.30;;;0.82;;
11998;SDS011;40817;51.520;9.954;2022-09-03T01:37:50;5.38;;;0.90;;
11998;SDS011;40817;51.520;9.954;2022-09-03T01:40:41;1.60;;;0.70;;
11998;SDS011;40817;51.520;9.954;2022-09-03T01:43:28;4.57;;;0.90;;
11998;SDS011;40817;51.520;9.954;2022-09-03T01:46:16;2.65;;;1.02;;
11998;SDS011;40817;51.520;9.954;2022-09-03T01:48:51;2.47;;;0.90;;
11998;SDS011;40817;51.520;9.954;2022-09-03T01:51:31;3.60;;;1.00;;
11998;SDS011;40817;51.520;9.954;2022-09-03T01:54:12;3.08;;;1.20;;
11998;SDS011;40817;51.520;9.954;2022-09-03T01:57:14;4.28;;;1.13;;
11998;SDS011;40817;51.520;9.954;2022-09-03T02:00:13;1.98;;;0.80;;
11998;SDS011;40817;51.520;9.954;2022-09-03T02:02:46;4.43;;;0.82;;
11998;SDS011;40817;51.520;9.954;2022-09-03T02:05:17;1.85;;;1.05;;
11998;SDS011;40817;51.520;9.954;2022-09-03T02:07:55;4.65;;;1.00;;
11998;SDS011;40817;51.520;9.954;2022-09-03T02:10:29;1.92;;;1.08;;
11998;SDS011;40817;51.520;9.954;2022-09-03T02:13:06;2.42;;;0.80;;
11998;SDS011;40817;51.520;9.954;2022-09-03T02:15:39;2.30;;;0.70;;
11998;SDS011;40817;51.520;9.954;2022-09-03T02:18:13;3.25;;;1.00;;
11998;SDS011;40817;51.520;9.954;2022-09-03T02:20:46;5.43;;;1.33;;
11998;SDS011;40817;51.520;9.954;2022-09-03T02:23:15;2.53;;;0.80;;
11998;SDS011;40817;51.520;9.954;2022-09-03T02:25:43;2.72;;;1.23;;
11998;SDS011;40817;51.520;9.954;2022-09-03T02:28:17;2.45;;;0.88;;
11998;SDS011;40817;51.520;9.954;2022-09-03T02:30:45;1.60;;;0.82;;
11998;SDS011;40817;51.520;9.954;2022-09-03T02:33:14;1.60;;;0.90;;
11998;SDS011;40817;51.520;9.954;2022-09-03T02:35:43;2.20;;;0.90;;
11998;SDS011;40817;51.520;9.954;2022-09-03T02:38:12;2.33;;;0.75;;
11998;SDS011;40817;51.520;9.954;2022-09-03T02:40:43;2.20;;;0.90;;
11998;SDS011;40817;51.520;9.954;2022-09-03T02:43:12;2.28;;;0.90;;
11998;SDS011;40817;51.520;9.954;2022-09-03T02:45:46;3.97;;;1.00;;
11998;SDS011;40817;51.520;9.954;2022-09-03T02:48:21;3.92;;;1.05;;
11998;SDS011;40817;51.520;9.954;2022-09-03T02:50:50;1.77;;;0.90;;
11998;SDS011;40817;51.520;9.954;2022-09-03T02:53:18;1.80;;;1.00;;
11998;SDS011;40817;51.520;9.954;2022-09-03T02:55:46;1.95;;;0.90;;
11998;SDS011;40817;51.520;9.954;2022-09-03T02:58:14;2.97;;;0.88;;
11998;SDS011;40817;51.520;9.954;2022-09-03T03:00:42;1.77;;;1.10;;
11998;SDS011;40817;51.520;9.954;2022-09-03T03:03:10;1.48;;;0.95;;
11998;SDS011;40817;51.520;9.954;2022-09-03T03:05:42;4.10;;;0.93;;
11998;SDS011;40817;51.520;9.954;2022-09-03T03:08:13;2.65;;;0.90;;
11998;SDS011;40817;51.520;9.954;2022-09-03T03:10:48;2.15;;;1.00;;
11998;SDS011;40817;51.520;9.954;2022-09-03T03:13:20;3.65;;;1.55;;
11998;SDS011;40817;51.520;9.954;2022-09-03T03:15:47;2.80;;;0.90;;
11998;SDS011;40817;51.520;9.954;2022-09-03T03:18:15;2.03;;;0.95;;
11998;SDS011;40817;51.520;9.954;2022-09-03T03:20:45;3.30;;;0.95;;
11998;SDS011;40817;51.520;9.954;2022-09-03T03:23:12;2.28;;;0.80;;
11998;SDS011;40817;51.520;9.954;2022-09-03T03:25:40;1.25;;;0.80;;
11998;SDS011;40817;51.520;9.954;2022-09-03T03:28:08;1.88;;;0.88;;
11998;SDS011;40817;51.520;9.954;2022-09-03T03:30:38;2.28;;;1.08;;
11998;SDS011;40817;51.520;9.954;2022-09-03T03:33:07;2.35;;;1.00;;
11998;SDS011;40817;51.520;9.954;2022-09-03T03:35:35;5.10;;;1.00;;
11998;SDS011;40817;51.520;9.954;2022-09-03T03:38:07;3.50;;;0.80;;
11998;SDS011;40817;51.520;9.954;2022-09-03T03:40:36;2.55;;;1.08;;
11998;SDS011;40817;51.520;9.954;2022-09-03T03:43:05;2.03;;;0.90;;
11998;SDS011;40817;51.520;9.954;2022-09-03T03:45:32;2.35;;;0.95;;
11998;SDS011;40817;51.520;9.954;2022-09-03T03:48:00;2.00;;;1.20;;
11998;SDS011;40817;51.520;9.954;2022-09-03T03:50:28;4.93;;;1.30;;
11998;SDS011;40817;51.520;9.954;2022-09-03T03:52:58;2.65;;;1.00;;
11998;SDS011;40817;51.520;9.954;2022-09-03T03:55:27;2.90;;;1.23;;
11998;SDS011;40817;51.520;9.954;2022-09-03T03:57:57;2.00;;;1.05;;
11998;SDS011;40817;51.520;9.954;2022-09-03T04:00:25;2.30;;;1.10;;
11998;SDS011;40817;51.520;9.954;2022-09-03T04:02:53;1.77;;;1.02;;
11998;SDS011;40817;51.520;9.954;2022-09-03T04:05:22;3.20;;;1.40;;
11998;SDS011;40817;51.520;9.954;2022-09-03T04:07:49;1.40;;;0.95;;
11998;SDS011;40817;51.520;9.954;2022-09-03T04:10:18;2.70;;;0.90;;
11998;SDS011;40817;51.520;9.954;2022-09-03T04:12:47;5.05;;;1.02;;
11998;SDS011;40817;51.520;9.954;2022-09-03T04:15:14;3.17;;;1.30;;
11998;SDS011;40817;51.520;9.954;2022-09-03T04:17:43;2.25;;;1.40;;
11998;SDS011;40817;51.520;9.954;2022-09-03T04:20:10;2.35;;;1.05;;
11998;SDS011;40817;51.520;9.954;2022-09-03T04:22:38;2.80;;;1.05;;
11998;SDS011;40817;51.520;9.954;2022-09-03T04:25:07;3.72;;;1.50;;
11998;SDS011;40817;51.520;9.954;2022-09-03T04:27:35;3.78;;;1.10;;
11998;SDS011;40817;51.520;9.954;2022-09-03T04:30:05;2.53;;;1.30;;
11998;SDS011;40817;51.520;9.954;2022-09-03T04:32:35;2.95;;;1.10;;
11998;SDS011;40817;51.520;9.954;2022-09-03T04:35:22;2.35;;;0.80;;
11998;SDS011;40817;51.520;9.954;2022-09-03T04:37:56;3.03;;;0.98;;
11998;SDS011;40817;51.520;9.954;2022-09-03T04:40:37;2.00;;;1.10;;
11998;SDS011;40817;51.520;9.954;2022-09-03T04:43:05;2.15;;;1.00;;
11998;SDS011;40817;51.520;9.954;2022-09-03T04:45:34;15.52;;;1.77;;
11998;SDS011;40817;51.520;9.954;2022-09-03T04:48:05;3.35;;;1.48;;
11998;SDS011;40817;51.520;9.954;2022-09-03T04:50:36;2.92;;;1.52;;
11998;SDS011;40817;51.520;9.954;2022-09-03T04:53:04;3.28;;;1.25;;
11998;SDS011;40817;51.520;9.954;2022-09-03T04:55:36;1.92;;;1.08;;
11998;SDS011;40817;51.520;9.954;2022-09-03T04:58:04;3.15;;;1.33;;
11998;SDS011;40817;51.520;9.954;2022-09-03T05:00:35;5.22;;;1.20;;
11998;SDS011;40817;51.520;9.954;2022-09-03T05:03:07;2.45;;;1.27;;
11998;SDS011;40817;51.520;9.954;2022-09-03T05:05:35;4.45;;;1.25;;
11998;SDS011;40817;51.520;9.954;2022-09-03T05:08:03;2.45;;;1.40;;
11998;SDS011;40817;51.520;9.954;2022-09-03T05:10:39;2.30;;;1.23;;
11998;SDS011;40817;51.520;9.954;2022-09-03T05:13:07;2.60;;;1.33;;
11998;SDS011;40817;51.520;9.954;2022-09-03T05:15:36;3.20;;;1.42;;
11998;SDS011;40817;51.520;9.954;2022-09-03T05:18:08;3.28;;;1.50;;
11998;SDS011;40817;51.520;9.954;2022-09-03T05:20:36;2.08;;;1.30;;
11998;SDS011;40817;51.520;9.954;2022-09-03T05:23:04;7.30;;;1.42;;
11998;SDS011;40817;51.520;9.954;2022-09-03T05:25:32;2.75;;;1.52;;
11998;SDS011;40817;51.520;9.954;2022-09-03T05:28:02;2.75;;;1.33;;
11998;SDS011;40817;51.520;9.954;2022-09-03T05:30:31;4.18;;;1.63;;
11998;SDS011;40817;51.520;9.954;2022-09-03T05:33:00;3.25;;;1.40;;
11998;SDS011;40817;51.520;9.954;2022-09-03T05:35:30;2.88;;;1.65;;
11998;SDS011;40817;51.520;9.954;2022-09-03T05:37:58;4.60;;;1.70;;
11998;SDS011;40817;51.520;9.954;2022-09-03T05:40:26;2.20;;;1.45;;
11998;SDS011;40817;51.520;9.954;2022-09-03T05:42:54;3.15;;;1.52;;
11998;SDS011;40817;51.520;9.954;2022-09-03T05:45:24;5.18;;;2.22;;
11998;SDS011;40817;51.520;9.954;2022-09-03T05:47:54;2.80;;;1.40;;
11998;SDS011;40817;51.520;9.954;2022-09-03T05:50:26;5.93;;;1.45;;
11998;SDS011;40817;51.520;9.954;2022-09-03T05:52:54;3.75;;;1.52;;
11998;SDS011;40817;51.520;9.954;2022-09-03T05:55:24;3.15;;;1.38;;
11998;SDS011;40817;51.520;9.954;2022-09-03T05:57:53;3.40;;;1.55;;
11998;SDS011;40817;51.520;9.954;2022-09-03T06:02:57;4.45;;;1.55;;
11998;SDS011;40817;51.520;9.954;2022-09-03T06:05:27;3.05;;;1.35;;
11998;SDS011;40817;51.520;9.954;2022-09-03T06:07:55;3.70;;;1.33;;
11998;SDS011;40817;51.520;9.954;2022-09-03T06:10:22;3.72;;;1.52;;
11998;SDS011;40817;51.520;9.954;2022-09-03T06:12:50;3.25;;;1.20;;
11998;SDS011;40817;51.520;9.954;2022-09-03T06:15:18;2.95;;;1.35;;
11998;SDS011;40817;51.520;9.954;2022-09-03T06:17:46;2.42;;;1.30;;
11998;SDS011;40817;51.520;9.954;2022-09-03T06:20:14;4.13;;;1.67;;
11998;SDS011;40817;51.520;9.954;2022-09-03T06:22:48;2.65;;;1.55;;
11998;SDS011;40817;51.520;9.954;2022-09-03T06:25:17;3.17;;;1.50;;
11998;SDS011;40817;51.520;9.954;2022-09-03T06:27:46;4.18;;;1.67;;
11998;SDS011;40817;51.520;9.954;2022-09-03T06:30:13;4.32;;;1.30;;
11998;SDS011;40817;51.520;9.954;2022-09-03T06:32:42;3.00;;;1.10;;
11998;SDS011;40817;51.520;9.954;2022-09-03T06:35:10;3.35;;;1.27;;
11998;SDS011;40817;51.520;9.954;2022-09-03T06:37:39;2.20;;;1.20;;
11998;SDS011;40817;51.520;9.954;2022-09-03T06:40:10;4.75;;;1.45;;
11998;SDS011;40817;51.520;9.954;2022-09-03T06:42:39;3.10;;;1.50;;
11998;SDS011;40817;51.520;9.954;2022-09-03T06:45:07;4.05;;;1.40;;
11998;SDS011;40817;51.520;9.954;2022-09-03T06:47:36;2.65;;;1.55;;
11998;SDS011;40817;51.520;9.954;2022-09-03T06:50:08;2.55;;;1.13;;
11998;SDS011;40817;51.520;9.954;2022-09-03T06:52:36;2.38;;;1.25;;
11998;SDS011;40817;51.520;9.954;2022-09-03T06:55:04;4.03;;;1.20;;
11998;SDS011;40817;51.520;9.954;2022-09-03T06:57:35;3.55;;;1.38;;
11998;SDS011;40817;51.520;9.954;2022-09-03T07:00:02;2.85;;;1.27;;
11998;SDS011;40817;51.520;9.954;2022-09-03T07:02:32;3.63;;;1.20;;
11998;SDS011;40817;51.520;9.954;2022-09-03T07:05:00;2.05;;;1.05;;
11998;SDS011;40817;51.520;9.954;2022-09-03T07:07:27;3.28;;;1.30;;
11998;SDS011;40817;51.520;9.954;2022-09-03T07:09:55;4.20;;;1.23;;
11998;SDS011;40817;51.520;9.954;2022-09-03T07:12:23;2.88;;;1.10;;
11998;SDS011;40817;51.520;9.954;2022-09-03T07:14:52;4.30;;;1.10;;
11998;SDS011;40817;51.520;9.954;2022-09-03T07:17:19;1.88;;;1.08;;
11998;SDS011;40817;51.520;9.954;2022-09-03T07:19:47;1.70;;;1.08;;
11998;SDS011;40817;51.520;9.954;2022-09-03T07:22:15;3.38;;;0.95;;
11998;SDS011;40817;51.520;9.954;2022-09-03T07:24:42;2.30;;;1.25;;
11998;SDS011;40817;51.520;9.954;2022-09-03T07:27:11;5.25;;;1.10;;
11998;SDS011;40817;51.520;9.954;2022-09-03T07:29:39;3.03;;;1.10;;
11998;SDS011;40817;51.520;9.954;2022-09-03T07:32:08;5.38;;;1.33;;
11998;SDS011;40817;51.520;9.954;2022-09-03T07:34:36;5.28;;;1.25;;
11998;SDS011;40817;51.520;9.954;2022-09-03T07:37:03;2.92;;;1.20;;
11998;SDS011;40817;51.520;9.954;2022-09-03T07:39:31;2.75;;;1.05;;
11998;SDS011;40817;51.520;9.954;2022-09-03T07:41:59;1.90;;;1.10;;
11998;SDS011;40817;51.520;9.954;2022-09-03T07:44:26;4.32;;;1.13;;
11998;SDS011;40817;51.520;9.954;2022-09-03T07:46:55;4.68;;;1.50;;
11998;SDS011;40817;51.520;9.954;2022-09-03T07:49:24;2.35;;;1.00;;
11998;SDS011;40817;51.520;9.954;2022-09-03T07:51:51;3.63;;;1.48;;
11998;SDS011;40817;51.520;9.954;2022-09-03T07:54:19;2.80;;;1.00;;
11998;SDS011;40817;51.520;9.954;2022-09-03T07:56:48;2.22;;;1.30;;
11998;SDS011;40817;51.520;9.954;2022-09-03T07:59:15;2.47;;;1.20;;
11998;SDS011;40817;51.520;9.954;2022-09-03T08:01:43;2.53;;;1.10;;
11998;SDS011;40817;51.520;9.954;2022-09-03T08:04:11;3.30;;;1.10;;
11998;SDS011;40817;51.520;9.954;2022-09-03T08:06:40;4.82;;;1.13;;
11998;SDS011;40817;51.520;9.954;2022-09-03T08:09:08;3.40;;;1.52;;
11998;SDS011;40817;51.520;9.954;2022-09-03T08:11:39;2.58;;;1.35;;
11998;SDS011;40817;51.520;9.954;2022-09-03T08:14:09;2.75;;;1.35;;
11998;SDS011;40817;51.520;9.954;2022-09-03T08:16:40;2.65;;;1.17;;
11998;SDS011;40817;51.520;9.954;2022-09-03T08:19:11;1.85;;;1.00;;
11998;SDS011;40817;51.520;9.954;2022-09-03T08:21:41;2.60;;;1.08;;
11998;SDS011;40817;51.520;9.954;2022-09-03T08:24:10;2.03;;;1.00;;
11998;SDS011;40817;51.520;9.954;2022-09-03T08:26:42;2.33;;;1.10;;
11998;SDS011;40817;51.520;9.954;2022-09-03T08:29:10;2.00;;;1.13;;
11998;SDS011;40817;51.520;9.954;2022-09-03T08:31:37;2.55;;;1.45;;
11998;SDS011;40817;51.520;9.954;2022-09-03T08:34:05;2.47;;;1.10;;
11998;SDS011;40817;51.520;9.954;2022-09-03T08:36:36;5.35;;;0.90;;
11998;SDS011;40817;51.520;9.954;2022-09-03T08:39:08;1.70;;;0.90;;
11998;SDS011;40817;51.520;9.954;2022-09-03T08:41:43;2.95;;;1.30;;
11998;SDS011;40817;51.520;9.954;2022-09-03T08:44:47;3.95;;;1.35;;
11998;SDS011;40817;51.520;9.954;2022-09-03T08:47:20;4.13;;;1.00;;
11998;SDS011;40817;51.520;9.954;2022-09-03T08:49:55;2.22;;;0.98;;
11998;SDS011;40817;51.520;9.954;2022-09-03T08:52:29;2.90;;;1.17;;
11998;SDS011;40817;51.520;9.954;2022-09-03T08:57:55;1.75;;;0.90;;
11998;SDS011;40817;51.520;9.954;2022-09-03T09:00:39;2.47;;;1.10;;
11998;SDS011;40817;51.520;9.954;2022-09-03T09:03:21;2.20;;;1.00;;
11998;SDS011;40817;51.520;9.954;2022-09-03T09:06:14;5.85;;;1.13;;
11998;SDS011;40817;51.520;9.954;2022-09-03T09:08:54;2.00;;;1.10;;
11998;SDS011;40817;51.520;9.954;2022-09-03T09:11:39;3.30;;;1.10;;
11998;SDS011;40817;51.520;9.954;2022-09-03T09:14:24;2.47;;;1.00;;
11998;SDS011;40817;51.520;9.954;2022-09-03T09:17:07;1.70;;;0.93;;
11998;SDS011;40817;51.520;9.954;2022-09-03T09:20:02;4.40;;;1.13;;
11998;SDS011;40817;51.520;9.954;2022-09-03T09:22:39;2.75;;;1.10;;
11998;SDS011;40817;51.520;9.954;2022-09-03T09:25:12;2.45;;;1.00;;
11998;SDS011;40817;51.520;9.954;2022-09-03T09:27:50;3.40;;;0.85;;
11998;SDS011;40817;51.520;9.954;2022-09-03T09:30:25;3.17;;;1.00;;
11998;SDS011;40817;51.520;9.954;2022-09-03T09:32:57;2.25;;;1.40;;
11998;SDS011;40817;51.520;9.954;2022-09-03T09:35:25;4.18;;;1.00;;
11998;SDS011;40817;51.520;9.954;2022-09-03T09:37:54;2.50;;;1.40;;
11998;SDS011;40817;51.520;9.954;2022-09-03T09:40:26;4.25;;;1.30;;
11998;SDS011;40817;51.520;9.954;2022-09-03T09:43:06;4.18;;;1.20;;
11998;SDS011;40817;51.520;9.954;2022-09-03T09:45:39;5.40;;;1.30;;
11998;SDS011;40817;51.520;9.954;2022-09-03T09:48:12;3.72;;;1.05;;
11998;SDS011;40817;51.520;9.954;2022-09-03T09:50:48;2.40;;;0.70;;
11998;SDS011;40817;51.520;9.954;2022-09-03T09:53:16;3.10;;;1.23;;
11998;SDS011;40817;51.520;9.954;2022-09-03T09:55:52;1.90;;;1.05;;
11998;SDS011;40817;51.520;9.954;2022-09-03T09:58:24;4.95;;;1.80;;
11998;SDS011;40817;51.520;9.954;2022-09-03T10:00:55;3.08;;;0.90;;
11998;SDS011;40817;51.520;9.954;2022-09-03T10:03:31;4.18;;;0.90;;
11998;SDS011;40817;51.520;9.954;2022-09-03T10:06:02;4.50;;;1.33;;
11998;SDS011;40817;51.520;9.954;2022-09-03T10:08:51;1.40;;;0.85;;
11998;SDS011;40817;51.520;9.954;2022-09-03T10:11:31;1.42;;;0.80;;
11998;SDS011;40817;51.520;9.954;2022-09-03T10:14:07;2.30;;;0.80;;
11998;SDS011;40817;51.520;9.954;2022-09-03T10:16:45;3.45;;;1.33;;
11998;SDS011;40817;51.520;9.954;2022-09-03T10:19:20;1.70;;;0.80;;
11998;SDS011;40817;51.520;9.954;2022-09-03T10:22:00;1.90;;;0.90;;
11998;SDS011;40817;51.520;9.954;2022-09-03T10:24:37;2.38;;;0.95;;
11998;SDS011;40817;51.520;9.954;2022-09-03T10:27:21;2.53;;;1.08;;
11998;SDS011;40817;51.520;9.954;2022-09-03T10:29:51;2.35;;;1.00;;
11998;SDS011;40817;51.520;9.954;2022-09-03T10:32:21;1.58;;;1.00;;
11998;SDS011;40817;51.520;9.954;2022-09-03T10:35:05;2.72;;;0.90;;
11998;SDS011;40817;51.520;9.954;2022-09-03T10:37:50;4.05;;;0.98;;
11998;SDS011;40817;51.520;9.954;2022-09-03T10:40:33;2.10;;;0.88;;
11998;SDS011;40817;51.520;9.954;2022-09-03T10:45:57;3.50;;;1.10;;
11998;SDS011;40817;51.520;9.954;2022-09-03T10:48:37;2.83;;;0.65;;
11998;SDS011;40817;51.520;9.954;2022-09-03T10:51:20;2.40;;;0.90;;
11998;SDS011;40817;51.520;9.954;2022-09-03T10:54:08;3.58;;;0.80;;
11998;SDS011;40817;51.520;9.954;2022-09-03T10:56:59;3.22;;;1.02;;
11998;SDS011;40817;51.520;9.954;2022-09-03T10:59:45;3.97;;;0.90;;
11998;SDS011;40817;51.520;9.954;2022-09-03T11:05:47;1.60;;;1.00;;
11998;SDS011;40817;51.520;9.954;2022-09-03T11:08:29;2.72;;;0.80;;
11998;SDS011;40817;51.520;9.954;2022-09-03T11:11:04;3.42;;;0.70;;
11998;SDS011;40817;51.520;9.954;2022-09-03T11:13:42;3.58;;;0.93;;
11998;SDS011;40817;51.520;9.954;2022-09-03T11:16:19;3.05;;;1.50;;
11998;SDS011;40817;51.520;9.954;2022-09-03T11:18:56;4.73;;;1.00;;
11998;SDS011;40817;51.520;9.954;2022-09-03T11:21:30;2.05;;;0.70;;
11998;SDS011;40817;51.520;9.954;2022-09-03T11:24:04;2.63;;;0.77;;
11998;SDS011;40817;51.520;9.954;2022-09-03T11:26:39;3.20;;;0.95;;
11998;SDS011;40817;51.520;9.954;2022-09-03T11:29:11;2.97;;;0.90;;
11998;SDS011;40817;51.520;9.954;2022-09-03T11:31:51;1.70;;;0.70;;
11998;SDS011;40817;51.520;9.954;2022-09-03T11:34:29;4.38;;;1.00;;
11998;SDS011;40817;51.520;9.954;2022-09-03T11:37:06;2.05;;;1.00;;
11998;SDS011;40817;51.520;9.954;2022-09-03T11:39:51;2.40;;;0.82;;
11998;SDS011;40817;51.520;9.954;2022-09-03T11:42:26;2.63;;;0.70;;
11998;SDS011;40817;51.520;9.954;2022-09-03T11:45:10;2.67;;;0.90;;
11998;SDS011;40817;51.520;9.954;2022-09-03T11:47:48;2.05;;;0.80;;
11998;SDS011;40817;51.520;9.954;2022-09-03T11:50:21;4.18;;;0.80;;
11998;SDS011;40817;51.520;9.954;2022-09-03T11:52:52;2.38;;;0.60;;
11998;SDS011;40817;51.520;9.954;2022-09-03T11:55:47;1.17;;;0.65;;
11998;SDS011;40817;51.520;9.954;2022-09-03T11:58:22;2.17;;;0.80;;
11998;SDS011;40817;51.520;9.954;2022-09-03T12:00:57;1.92;;;0.90;;
11998;SDS011;40817;51.520;9.954;2022-09-03T12:03:27;2.97;;;1.17;;
11998;SDS011;40817;51.520;9.954;2022-09-03T12:09:55;2.40;;;0.80;;
11998;SDS011;40817;51.520;9.954;2022-09-03T12:12:56;3.65;;;0.80;;
11998;SDS011;40817;51.520;9.954;2022-09-03T12:15:54;3.10;;;0.65;;
11998;SDS011;40817;51.520;9.954;2022-09-03T12:19:16;2.58;;;0.90;;
11998;SDS011;40817;51.520;9.954;2022-09-03T12:21:55;2.55;;;0.60;;
11998;SDS011;40817;51.520;9.954;2022-09-03T12:24:25;1.70;;;0.70;;
11998;SDS011;40817;51.520;9.954;2022-09-03T12:27:00;3.53;;;0.98;;
11998;SDS011;40817;51.520;9.954;2022-09-03T12:29:29;2.00;;;0.73;;
11998;SDS011;40817;51.520;9.954;2022-09-03T12:32:05;3.33;;;0.93;;
11998;SDS011;40817;51.520;9.954;2022-09-03T12:34:37;2.78;;;0.80;;
11998;SDS011;40817;51.520;9.954;2022-09-03T12:37:13;2.20;;;1.15;;
11998;SDS011;40817;51.520;9.954;2022-09-03T12:39:49;2.13;;;0.80;;
11998;SDS011;40817;51.520;9.954;2022-09-03T12:42:19;4.07;;;1.10;;
11998;SDS011;40817;51.520;9.954;2022-09-03T12:44:52;3.17;;;0.77;;
11998;SDS011;40817;51.520;9.954;2022-09-03T12:47:20;2.58;;;0.70;;
11998;SDS011;40817;51.520;9.954;2022-09-03T12:49:50;2.72;;;0.80;;
11998;SDS011;40817;51.520;9.954;2022-09-03T12:52:25;3.70;;;0.90;;
11998;SDS011;40817;51.520;9.954;2022-09-03T12:54:59;1.60;;;1.00;;
11998;SDS011;40817;51.520;9.954;2022-09-03T12:57:34;1.85;;;0.93;;
11998;SDS011;40817;51.520;9.954;2022-09-03T13:00:06;1.52;;;0.93;;
11998;SDS011;40817;51.520;9.954;2022-09-03T13:02:40;3.08;;;0.85;;
11998;SDS011;40817;51.520;9.954;2022-09-03T13:05:17;2.05;;;0.73;;
11998;SDS011;40817;51.520;9.954;2022-09-03T13:07:52;1.25;;;0.60;;
11998;SDS011;40817;51.520;9.954;2022-09-03T13:10:25;1.70;;;0.80;;
11998;SDS011;40817;51.520;9.954;2022-09-03T13:12:58;2.95;;;0.73;;
11998;SDS011;40817;51.520;9.954;2022-09-03T13:15:28;2.35;;;0.70;;
11998;SDS011;40817;51.520;9.954;2022-09-03T13:18:00;1.10;;;0.70;;
11998;SDS011;40817;51.520;9.954;2022-09-03T13:20:55;3.63;;;0.80;;
11998;SDS011;40817;51.520;9.954;2022-09-03T13:26:56;2.97;;;0.60;;
11998;SDS011;40817;51.520;9.954;2022-09-03T13:29:46;2.00;;;0.77;;
11998;SDS011;40817;51.520;9.954;2022-09-03T13:32:41;2.50;;;0.75;;
11998;SDS011;40817;51.520;9.954;2022-09-03T13:35:25;2.03;;;0.68;;
11998;SDS011;40817;51.520;9.954;2022-09-03T13:38:03;3.03;;;0.88;;
11998;SDS011;40817;51.520;9.954;2022-09-03T13:40:48;3.03;;;0.80;;
11998;SDS011;40817;51.520;9.954;2022-09-03T13:43:26;1.63;;;0.70;;
11998;SDS011;40817;51.520;9.954;2022-09-03T13:46:01;4.82;;;1.00;;
11998;SDS011;40817;51.520;9.954;2022-09-03T13:48:35;3.60;;;0.90;;
11998;SDS011;40817;51.520;9.954;2022-09-03T13:51:25;1.60;;;0.80;;
11998;SDS011;40817;51.520;9.954;2022-09-03T13:54:02;2.13;;;0.68;;
11998;SDS011;40817;51.520;9.954;2022-09-03T13:56:48;3.90;;;0.80;;
11998;SDS011;40817;51.520;9.954;2022-09-03T13:59:32;3.38;;;0.80;;
11998;SDS011;40817;51.520;9.954;2022-09-03T14:02:18;2.42;;;0.80;;
11998;SDS011;40817;51.520;9.954;2022-09-03T14:04:57;2.50;;;0.75;;
11998;SDS011;40817;51.520;9.954;2022-09-03T14:07:42;2.25;;;0.88;;
11998;SDS011;40817;51.520;9.954;2022-09-03T14:10:27;1.60;;;0.73;;
11998;SDS011;40817;51.520;9.954;2022-09-03T14:13:21;3.53;;;0.85;;
11998;SDS011;40817;51.520;9.954;2022-09-03T14:16:09;2.30;;;0.90;;
11998;SDS011;40817;51.520;9.954;2022-09-03T14:18:58;2.15;;;0.80;;
11998;SDS011;40817;51.520;9.954;2022-09-03T14:21:32;3.20;;;0.60;;
11998;SDS011;40817;51.520;9.954;2022-09-03T14:24:09;3.35;;;0.70;;
11998;SDS011;40817;51.520;9.954;2022-09-03T14:26:50;1.45;;;0.70;;
11998;SDS011;40817;51.520;9.954;2022-09-03T14:29:24;3.20;;;0.90;;
11998;SDS011;40817;51.520;9.954;2022-09-03T14:31:58;2.00;;;0.88;;
11998;SDS011;40817;51.520;9.954;2022-09-03T14:41:53;2.40;;;0.63;;
11998;SDS011;40817;51.520;9.954;2022-09-03T14:45:07;2.25;;;0.80;;
11998;SDS011;40817;51.520;9.954;2022-09-03T14:48:14;2.55;;;0.95;;
11998;SDS011;40817;51.520;9.954;2022-09-03T14:51:43;4.97;;;1.02;;
11998;SDS011;40817;51.520;9.954;2022-09-03T14:54:35;1.90;;;1.02;;
11998;SDS011;40817;51.520;9.954;2022-09-03T14:57:34;2.42;;;1.10;;
11998;SDS011;40817;51.520;9.954;2022-09-03T15:00:33;2.60;;;0.70;;
11998;SDS011;40817;51.520;9.954;2022-09-03T15:03:27;1.27;;;0.70;;
11998;SDS011;40817;51.520;9.954;2022-09-03T15:06:44;2.28;;;0.90;;
11998;SDS011;40817;51.520;9.954;2022-09-03T15:09:27;2.17;;;0.85;;
11998;SDS011;40817;51.520;9.954;2022-09-03T15:12:05;2.97;;;0.80;;
11998;SDS011;40817;51.520;9.954;2022-09-03T15:14:45;1.38;;;0.80;;
11998;SDS011;40817;51.520;9.954;2022-09-03T15:17:24;1.80;;;0.80;;
11998;SDS011;40817;51.520;9.954;2022-09-03T15:20:19;2.03;;;1.00;;
11998;SDS011;40817;51.520;9.954;2022-09-03T15:23:02;2.38;;;0.80;;
11998;SDS011;40817;51.520;9.954;2022-09-03T15:26:00;2.75;;;0.82;;
11998;SDS011;40817;51.520;9.954;2022-09-03T15:32:21;2.97;;;0.90;;
11998;SDS011;40817;51.520;9.954;2022-09-03T15:35:14;1.60;;;0.80;;
11998;SDS011;40817;51.520;9.954;2022-09-03T15:38:05;2.33;;;0.80;;
11998;SDS011;40817;51.520;9.954;2022-09-03T15:40:40;1.30;;;0.77;;
11998;SDS011;40817;51.520;9.954;2022-09-03T15:43:20;4.57;;;0.82;;
11998;SDS011;40817;51.520;9.954;2022-09-03T15:45:54;1.35;;;0.70;;
11998;SDS011;40817;51.520;9.954;2022-09-03T15:48:28;3.85;;;0.90;;
11998;SDS011;40817;51.520;9.954;2022-09-03T15:51:11;1.73;;;0.80;;
11998;SDS011;40817;51.520;9.954;2022-09-03T15:53:49;1.80;;;0.85;;
11998;SDS011;40817;51.520;9.954;2022-09-03T15:56:24;2.17;;;0.80;;
11998;SDS011;40817;51.520;9.954;2022-09-03T15:59:02;1.55;;;0.80;;
11998;SDS011;40817;51.520;9.954;2022-09-03T16:01:47;2.28;;;0.90;;
11998;SDS011;40817;51.520;9.954;2022-09-03T16:04:29;1.10;;;0.70;;
11998;SDS011;40817;51.520;9.954;2022-09-03T16:07:21;1.20;;;0.70;;
11998;SDS011;40817;51.520;9.954;2022-09-03T16:09:55;4.45;;;0.80;;
11998;SDS011;40817;51.520;9.954;2022-09-03T16:12:35;1.85;;;0.82;;